Colchester, Illinois
Current Conditions -  °F | °C
As of 12:55 AM on Friday 28 Nov 2014 (Local Time) from KMQB Reporting Station
Overcast Overcast  
Wind Chill:   Ceiling: 6000
Heat Index: 14°   Visibility: 10mi
Dew Point:   Wind: 6mph
Humidity: 74%   Direction: 100°E
Pressure: 30.39"   Gusts: NA
Location:  40.43°N, 90.79°W
Report Text: KMQB 280655Z AUTO 10005KT 10SM BKN060 BKN065 OVC090 M10/M14 A3039 RMK AO2 T10981136
Loading
Personal Weather Stations






























Interactive Weather Map New forecast layout! Learn more

10-Day Weather Forecast

Advertisements
Track Severe Weather on mobile